createdAt,value
2019-01-27T00:03:00.813Z,98664.16
2019-01-27T00:05:25.235Z,98669.13
2019-01-27T00:07:49.638Z,98659.97
2019-01-27T00:10:25.689Z,98644.91
2019-01-27T00:12:50.113Z,98639.09
2019-01-27T00:15:27.176Z,98642.98
2019-01-27T00:17:51.654Z,98631.80
2019-01-27T00:20:35.495Z,98631.63
2019-01-27T00:23:00.040Z,98640.59
2019-01-27T00:25:24.489Z,98625.77
2019-01-27T00:27:48.881Z,98618.27
2019-01-27T00:30:34.100Z,98613.36
2019-01-27T00:32:58.571Z,98611.25
2019-01-27T00:35:22.973Z,98599.27
2019-01-27T00:37:47.406Z,98603.49
2019-01-27T00:43:08.831Z,98587.87
2019-01-27T00:45:33.240Z,98590.56
2019-01-27T00:50:33.323Z,98578.81
2019-01-27T00:52:57.751Z,98568.92
2019-01-27T00:55:41.536Z,98575.08
2019-01-27T00:58:05.988Z,98569.12
2019-01-27T01:00:30.629Z,98565.20
2019-01-27T01:02:55.117Z,98563.48
2019-01-27T01:11:10.136Z,98555.40
2019-01-27T01:13:34.543Z,98548.02
2019-01-27T01:15:58.936Z,98553.23
2019-01-27T01:18:23.414Z,98539.90
2019-01-27T01:20:47.902Z,98536.56
2019-01-27T01:23:12.372Z,98532.48
2019-01-27T01:25:36.921Z,98528.72
2019-01-27T01:28:13.876Z,98517.73
2019-01-27T01:30:38.342Z,98510.49
2019-01-27T01:33:02.739Z,98512.22
2019-01-27T01:35:27.159Z,98512.36
2019-01-27T01:37:51.629Z,98507.42
2019-01-27T01:40:35.399Z,98494.84
2019-01-27T01:42:59.775Z,98491.37
2019-01-27T01:45:43.612Z,98492.09
2019-01-27T01:48:08.096Z,98486.92
2019-01-27T01:50:32.559Z,98488.26
2019-01-27T01:52:57.098Z,98479.89
2019-01-27T01:55:21.554Z,98473.78
2019-01-27T01:57:58.641Z,98465.62
2019-01-27T02:00:35.214Z,98460.23
2019-01-27T02:02:59.709Z,98458.38
2019-01-27T02:05:24.251Z,98449.72
2019-01-27T02:07:48.697Z,98446.37
2019-01-27T02:10:25.127Z,98446.45
2019-01-27T02:13:01.276Z,98438.29
2019-01-27T02:18:23.087Z,98425.75
2019-01-27T02:20:47.914Z,98411.56
2019-01-27T02:23:12.388Z,98405.17
2019-01-27T02:28:13.213Z,98400.68
2019-01-27T02:30:37.628Z,98393.08
2019-01-27T02:33:02.033Z,98396.33
2019-01-27T02:35:26.521Z,98383.88
2019-01-27T02:37:50.912Z,98383.39
2019-01-27T02:40:15.297Z,98380.53
2019-01-27T02:42:39.708Z,98382.25
2019-01-27T02:45:16.120Z,98375.99
2019-01-27T02:47:40.552Z,98363.88
2019-01-27T02:53:01.662Z,98353.06
2019-01-27T02:55:26.038Z,98347.86
2019-01-27T02:57:50.425Z,98343.12
2019-01-27T03:00:34.161Z,98328.78
2019-01-27T03:02:58.584Z,98335.17
2019-01-27T03:05:42.104Z,98314.55
2019-01-27T03:11:07.924Z,98318.34
2019-01-27T03:13:32.360Z,98302.44
2019-01-27T03:18:32.454Z,98297.53
2019-01-27T03:20:56.887Z,98292.96
2019-01-27T03:23:21.346Z,98284.11
2019-01-27T03:25:45.812Z,98281.02
2019-01-27T03:30:49.728Z,98272.92
2019-01-27T03:33:14.095Z,98278.73
2019-01-27T03:35:38.503Z,98266.20
2019-01-27T03:38:02.979Z,98265.13
2019-01-27T03:40:27.356Z,98256.69
2019-01-27T03:42:51.773Z,98252.73
2019-01-27T03:48:12.629Z,98244.44
2019-01-27T03:50:37.030Z,98237.82
2019-01-27T03:53:01.439Z,98238.48
2019-01-27T03:58:22.263Z,98232.80
2019-01-27T04:00:46.644Z,98227.91
2019-01-27T04:03:23.066Z,98218.75
2019-01-27T04:05:47.468Z,98209.30
2019-01-27T04:08:11.871Z,98205.02
2019-01-27T04:10:36.289Z,98203.41
2019-01-27T04:13:00.695Z,98199.19
2019-01-27T04:15:25.252Z,98189.42
2019-01-27T04:17:49.714Z,98176.88
2019-01-27T04:23:10.999Z,98185.73
2019-01-27T04:25:47.455Z,98178.27
2019-01-27T04:28:24.082Z,98170.14
2019-01-27T04:30:48.510Z,98166.80
2019-01-27T04:33:24.914Z,98164.17
2019-01-27T04:35:49.302Z,98160.30
2019-01-27T04:38:13.684Z,98158.95
2019-01-27T04:40:38.093Z,98157.59
2019-01-27T04:43:02.506Z,98150.09
2019-01-27T04:48:02.242Z,98148.58
2019-01-27T04:50:26.621Z,98143.84
2019-01-27T04:53:02.852Z,98144.31
2019-01-27T04:55:27.235Z,98138.88
2019-01-27T04:57:51.620Z,98134.14
2019-01-27T05:05:48.398Z,98127.23
2019-01-27T05:08:12.800Z,98124.55
2019-01-27T05:10:49.460Z,98119.55
2019-01-27T05:13:25.334Z,98118.00
2019-01-27T05:15:49.744Z,98119.47
2019-01-27T05:18:14.146Z,98111.85
2019-01-27T05:20:38.541Z,98113.82
2019-01-27T05:23:02.942Z,98110.77
2019-01-27T05:25:27.317Z,98110.29
2019-01-27T05:27:51.795Z,98104.86
2019-01-27T05:30:35.617Z,98096.94
2019-01-27T05:33:00.021Z,98098.95
2019-01-27T05:35:24.404Z,98089.35
2019-01-27T05:37:48.868Z,98085.57
2019-01-27T05:43:09.781Z,98081.56
2019-01-27T05:45:34.168Z,98075.39
2019-01-27T05:47:58.562Z,98079.63
2019-01-27T05:50:22.952Z,98072.53
2019-01-27T05:52:47.347Z,98064.33
2019-01-27T05:55:31.087Z,98065.05
2019-01-27T05:57:55.467Z,98069.68
2019-01-27T06:03:14.493Z,98055.00
2019-01-27T06:05:38.894Z,98056.76
2019-01-27T06:08:03.357Z,98057.20
2019-01-27T06:10:27.763Z,98052.24
2019-01-27T06:12:52.152Z,98045.70
2019-01-27T06:15:35.891Z,98043.34
2019-01-27T06:18:19.644Z,98035.99
2019-01-27T06:20:44.046Z,98041.89
2019-01-27T06:23:08.441Z,98026.18
2019-01-27T06:25:32.852Z,98030.15
2019-01-27T06:27:57.259Z,98013.14
2019-01-27T06:30:52.659Z,98008.17
2019-01-27T06:33:36.170Z,98001.00
2019-01-27T06:36:00.576Z,98008.44
2019-01-27T06:38:24.960Z,97999.67
2019-01-27T06:40:49.405Z,98006.27
2019-01-27T06:43:13.808Z,98001.87
2019-01-27T06:45:38.260Z,98002.45
2019-01-27T06:48:02.654Z,97994.98
2019-01-27T06:50:27.039Z,97989.78
2019-01-27T06:52:51.553Z,97987.52
2019-01-27T06:55:35.273Z,97983.73
2019-01-27T06:57:59.705Z,97981.62
2019-01-27T07:08:49.995Z,97973.48
2019-01-27T07:11:33.518Z,97972.14
2019-01-27T07:16:52.747Z,97958.58
2019-01-27T07:19:36.283Z,97966.43
2019-01-27T07:24:54.872Z,97960.81
2019-01-27T07:30:13.363Z,97939.48
2019-01-27T07:32:56.875Z,97951.61
2019-01-27T07:38:16.277Z,97937.70
2019-01-27T07:40:59.833Z,97939.57
2019-01-27T07:43:43.372Z,97935.27
2019-01-27T07:49:22.316Z,97945.17
2019-01-27T07:55:00.888Z,97936.33
2019-01-27T07:57:44.392Z,97926.68
2019-01-27T08:03:24.948Z,97912.92
2019-01-27T08:06:08.475Z,97909.15
2019-01-27T08:11:27.538Z,97905.73
2019-01-27T08:16:46.589Z,97906.25
2019-01-27T08:30:10.729Z,97904.92
2019-01-27T08:38:27.099Z,97895.52
2019-01-27T08:41:10.645Z,97895.16
2019-01-27T08:43:54.164Z,97896.63
2019-01-27T08:46:37.720Z,97894.62
2019-01-27T08:49:02.185Z,97881.51
2019-01-27T08:51:26.587Z,97877.29
2019-01-27T08:53:51.002Z,97874.87
2019-01-27T08:56:15.392Z,97874.22
2019-01-27T08:58:39.814Z,97866.61
2019-01-27T09:03:59.015Z,97858.23
2019-01-27T09:09:18.339Z,97849.89
2019-01-27T09:12:01.876Z,97849.36
2019-01-27T09:14:45.424Z,97848.58
2019-01-27T09:23:31.218Z,97849.00
2019-01-27T09:36:36.539Z,97828.47
2019-01-27T09:39:16.979Z,97830.13
2019-01-27T09:42:00.505Z,97821.30
2019-01-27T09:44:44.049Z,97823.11
2019-01-27T09:47:27.580Z,97834.18
2019-01-27T09:50:11.169Z,97830.92
2019-01-27T09:52:54.686Z,97818.48
2019-01-27T09:58:13.678Z,97820.70
2019-01-27T10:03:30.291Z,97818.95
2019-01-27T10:05:56.328Z,97814.80
2019-01-27T10:08:28.289Z,97819.52
2019-01-27T10:10:54.311Z,97815.53
2019-01-27T10:13:20.339Z,97816.56
2019-01-27T10:15:46.415Z,97812.80
2019-01-27T10:18:18.513Z,97813.58
2019-01-27T10:20:44.573Z,97808.66
2019-01-27T10:23:16.246Z,97811.15
2019-01-27T10:25:47.828Z,97815.80
2019-01-27T10:28:32.046Z,97796.45
2019-01-27T10:31:09.939Z,97801.22
2019-01-27T10:33:39.015Z,97798.09
2019-01-27T10:36:07.953Z,97790.84
2019-01-27T10:38:34.016Z,97790.91
2019-01-27T10:41:00.080Z,97786.94
2019-01-27T10:43:26.140Z,97781.15
2019-01-27T10:45:52.168Z,97783.58
2019-01-27T10:48:34.213Z,97771.20
2019-01-27T10:51:00.272Z,97773.52
2019-01-27T10:53:26.317Z,97766.89
2019-01-27T10:56:07.217Z,97758.40
2019-01-27T10:58:38.986Z,97759.84
2019-01-27T11:01:10.716Z,97751.42
2019-01-27T11:03:36.741Z,97745.64
2019-01-27T11:06:05.496Z,97753.97
2019-01-27T11:08:31.557Z,97747.05
2019-01-27T11:10:57.623Z,97740.14
2019-01-27T11:13:32.733Z,97741.52
2019-01-27T11:15:58.874Z,97738.14
2019-01-27T11:18:28.019Z,97734.47
2019-01-27T11:20:56.996Z,97730.61
2019-01-27T11:23:35.098Z,97734.90
2019-01-27T11:26:01.890Z,97732.97
2019-01-27T11:28:36.766Z,97735.02
2019-01-27T11:31:17.605Z,97735.73
2019-01-27T11:33:43.739Z,97718.92
2019-01-27T11:36:09.786Z,97722.77
2019-01-27T11:38:51.761Z,97724.06
2019-01-27T11:41:20.447Z,97709.32
2019-01-27T11:43:46.504Z,97713.66
2019-01-27T11:46:30.524Z,97708.76
2019-01-27T11:49:14.681Z,97699.13
2019-01-27T11:51:39.998Z,97689.14
2019-01-27T11:54:04.472Z,97690.02
2019-01-27T11:56:28.862Z,97691.78
2019-01-27T11:58:53.317Z,97694.31
2019-01-27T12:01:17.718Z,97688.09
2019-01-27T12:03:42.178Z,97684.22
2019-01-27T12:06:06.563Z,97691.23
2019-01-27T12:08:30.967Z,97680.12
2019-01-27T12:10:55.427Z,97676.19
2019-01-27T12:13:19.864Z,97674.34
2019-01-27T12:15:44.272Z,97676.33
2019-01-27T12:18:08.741Z,97667.33
2019-01-27T12:20:33.160Z,97671.36
2019-01-27T12:22:57.562Z,97672.67
2019-01-27T12:25:21.984Z,97662.10
2019-01-27T12:27:46.464Z,97660.72
2019-01-27T12:30:18.644Z,97653.97
2019-01-27T12:32:43.089Z,97661.09
2019-01-27T12:35:09.158Z,97655.95
2019-01-27T12:37:34.567Z,97652.63
2019-01-27T12:39:59.000Z,97653.99
2019-01-27T12:42:23.501Z,97645.81
2019-01-27T12:44:47.904Z,97656.22
2019-01-27T12:47:12.338Z,97641.88
2019-01-27T12:49:36.747Z,97641.38
2019-01-27T12:52:01.154Z,97632.77
2019-01-27T12:54:25.529Z,97636.70
2019-01-27T12:56:49.930Z,97635.59
2019-01-27T12:59:14.330Z,97628.11
2019-01-27T13:01:38.759Z,97629.45
2019-01-27T13:04:03.216Z,97623.55
2019-01-27T13:06:27.619Z,97620.48
2019-01-27T13:08:52.026Z,97615.30
2019-01-27T13:11:16.484Z,97613.75
2019-01-27T13:13:40.929Z,97611.06
2019-01-27T13:16:05.479Z,97613.59
2019-01-27T13:18:29.955Z,97611.38
2019-01-27T13:20:54.368Z,97607.56
2019-01-27T13:23:18.744Z,97604.51
2019-01-27T13:25:43.157Z,97604.08
2019-01-27T13:28:07.700Z,97609.59
2019-01-27T13:30:32.121Z,97605.58
2019-01-27T13:32:56.574Z,97604.64
2019-01-27T13:35:21.598Z,97597.22
2019-01-27T13:37:46.074Z,97605.36
2019-01-27T13:40:13.744Z,97594.52
2019-01-27T13:42:38.174Z,97601.47
2019-01-27T13:45:02.579Z,97595.55
2019-01-27T13:47:26.990Z,97596.81
2019-01-27T13:49:51.385Z,97590.74
2019-01-27T13:52:15.819Z,97587.67
2019-01-27T13:54:40.216Z,97589.27
2019-01-27T13:57:04.876Z,97588.78
2019-01-27T13:59:29.268Z,97584.17
2019-01-27T14:01:53.681Z,97587.70
2019-01-27T14:04:18.130Z,97580.89
2019-01-27T14:06:42.545Z,97582.57
2019-01-27T14:09:07.530Z,97579.30
2019-01-27T14:11:31.929Z,97574.11
2019-01-27T14:13:56.357Z,97578.86
2019-01-27T14:16:20.776Z,97569.88
2019-01-27T14:18:45.137Z,97570.63
2019-01-27T14:21:16.308Z,97582.33
2019-01-27T14:23:35.749Z,97574.50
2019-01-27T14:26:00.142Z,97576.94
2019-01-27T14:28:24.554Z,97579.11
2019-01-27T14:30:48.939Z,97572.90
2019-01-27T14:33:13.360Z,97567.44
2019-01-27T14:35:37.753Z,97570.94
2019-01-27T14:38:02.149Z,97576.34
2019-01-27T14:40:28.702Z,97563.83
2019-01-27T14:42:53.197Z,97569.40
2019-01-27T14:45:20.146Z,97575.81
2019-01-27T14:47:44.543Z,97578.84
2019-01-27T14:50:11.998Z,97574.84
2019-01-27T14:52:36.388Z,97573.72
2019-01-27T14:55:02.454Z,97578.97
2019-01-27T14:57:26.868Z,97574.17
2019-01-27T14:59:51.304Z,97575.70
2019-01-27T15:02:15.736Z,97570.94
2019-01-27T15:04:40.135Z,97574.23
2019-01-27T15:07:04.902Z,97573.62
2019-01-27T15:09:29.344Z,97571.81
2019-01-27T15:11:53.728Z,97569.62
2019-01-27T15:14:18.142Z,97564.63
2019-01-27T15:16:42.747Z,97568.52
2019-01-27T15:19:07.202Z,97578.77
2019-01-27T15:21:31.740Z,97579.57
2019-01-27T15:23:56.141Z,97579.74
2019-01-27T15:26:20.567Z,97579.02
2019-01-27T15:28:44.969Z,97581.59
2019-01-27T15:31:09.355Z,97576.74
2019-01-27T15:33:33.898Z,97576.45
2019-01-27T15:35:58.293Z,97576.98
2019-01-27T15:38:22.865Z,97568.77
2019-01-27T15:40:47.285Z,97574.08
2019-01-27T15:43:11.689Z,97578.80
2019-01-27T15:45:36.115Z,97578.97
2019-01-27T15:48:00.587Z,97579.06
2019-01-27T15:50:28.043Z,97578.52
2019-01-27T15:52:52.523Z,97577.94
2019-01-27T15:55:18.584Z,97582.39
2019-01-27T15:57:43.129Z,97578.03
2019-01-27T16:00:13.710Z,97578.61
2019-01-27T16:02:38.117Z,97578.70
2019-01-27T16:05:02.503Z,97579.74
2019-01-27T16:07:26.949Z,97585.41
2019-01-27T16:09:51.337Z,97587.56
2019-01-27T16:12:15.744Z,97588.16
2019-01-27T16:14:40.127Z,97581.30
2019-01-27T16:17:04.932Z,97589.76
2019-01-27T16:19:29.349Z,97599.38
2019-01-27T16:21:53.844Z,97595.76
2019-01-27T16:24:19.891Z,97596.42
2019-01-27T16:26:44.298Z,97591.85
2019-01-27T16:29:08.744Z,97604.56
2019-01-27T16:31:34.756Z,97592.87
2019-01-27T16:34:00.801Z,97602.50
2019-01-27T16:36:25.228Z,97603.80
2019-01-27T16:38:49.647Z,97605.16
2019-01-27T16:41:14.227Z,97609.27
2019-01-27T16:43:38.641Z,97608.03
2019-01-27T16:46:03.045Z,97609.05
2019-01-27T16:48:27.482Z,97602.70
2019-01-27T16:50:51.886Z,97606.50
2019-01-27T16:53:16.309Z,97610.58
2019-01-27T16:55:40.703Z,97603.73
2019-01-27T16:58:05.265Z,97605.02
2019-01-27T17:00:32.865Z,97607.82
2019-01-27T17:02:57.301Z,97600.63
2019-01-27T17:05:21.764Z,97604.56
2019-01-27T17:07:46.431Z,97606.36
2019-01-27T17:10:13.924Z,97607.27
2019-01-27T17:12:38.407Z,97607.16
2019-01-27T17:15:02.822Z,97603.27
2019-01-27T17:17:27.224Z,97609.79
2019-01-27T17:19:51.631Z,97606.10
2019-01-27T17:22:16.023Z,97608.30
2019-01-27T17:24:40.450Z,97612.34
2019-01-27T17:27:04.928Z,97609.08
2019-01-27T17:29:29.363Z,97614.06
2019-01-27T17:31:53.752Z,97614.65
2019-01-27T17:34:18.156Z,97611.98
2019-01-27T17:36:42.588Z,97615.53
2019-01-27T17:39:09.613Z,97614.03
2019-01-27T17:41:34.220Z,97606.14
2019-01-27T17:43:58.615Z,97605.10
2019-01-27T17:46:23.036Z,97605.80
2019-01-27T17:48:47.558Z,97607.17
2019-01-27T17:51:11.980Z,97607.13
2019-01-27T17:53:37.998Z,97612.27
2019-01-27T17:56:02.471Z,97611.97
2019-01-27T17:58:30.169Z,97609.55
2019-01-27T18:00:59.039Z,97609.91
2019-01-27T18:03:25.098Z,97615.80
2019-01-27T18:05:51.138Z,97608.55
2019-01-27T18:08:17.268Z,97602.88
2019-01-27T18:10:43.251Z,97609.59
2019-01-27T18:13:09.357Z,97611.30
2019-01-27T18:15:34.642Z,97614.09
2019-01-27T18:17:59.063Z,97615.97
2019-01-27T18:20:23.549Z,97615.64
2019-01-27T18:22:47.972Z,97614.25
2019-01-27T18:25:12.661Z,97613.50
2019-01-27T18:27:37.069Z,97616.84
2019-01-27T18:30:01.487Z,97616.52
2019-01-27T18:32:28.952Z,97614.68
2019-01-27T18:34:53.333Z,97613.55
2019-01-27T18:37:17.790Z,97620.97
2019-01-27T18:39:42.150Z,97616.81
2019-01-27T18:42:07.015Z,97622.88
2019-01-27T18:44:31.412Z,97624.41
2019-01-27T18:46:55.843Z,97627.44
2019-01-27T18:49:20.231Z,97627.66
2019-01-27T18:51:44.670Z,97629.85
2019-01-27T18:54:10.726Z,97633.11
2019-01-27T18:56:36.742Z,97637.09
2019-01-27T18:59:02.795Z,97641.64
2019-01-27T19:01:40.554Z,97633.23
2019-01-27T19:04:06.880Z,97639.16
2019-01-27T19:06:32.905Z,97638.28
2019-01-27T19:08:59.007Z,97642.08
2019-01-27T19:11:25.051Z,97644.48
2019-01-27T19:13:56.884Z,97647.39
2019-01-27T19:16:25.934Z,97643.80
2019-01-27T19:18:57.824Z,97648.55
2019-01-27T19:21:26.546Z,97655.16
2019-01-27T19:23:52.643Z,97655.52
2019-01-27T19:26:30.521Z,97661.03
2019-01-27T19:28:59.222Z,97662.27
2019-01-27T19:31:25.293Z,97668.67
2019-01-27T19:33:57.280Z,97662.35
2019-01-27T19:36:35.028Z,97668.48
2019-01-27T19:39:01.074Z,97669.23
2019-01-27T19:41:32.991Z,97665.52
2019-01-27T19:44:14.982Z,97668.56
2019-01-27T19:46:41.031Z,97674.42
2019-01-27T19:49:07.124Z,97671.73
2019-01-27T19:51:36.098Z,97672.92
2019-01-27T19:54:11.354Z,97677.02
2019-01-27T19:56:53.701Z,97675.28
2019-01-27T19:59:31.566Z,97669.77
2019-01-27T20:01:57.628Z,97684.05
2019-01-27T20:04:23.674Z,97680.55
2019-01-27T20:06:55.682Z,97675.39
2019-01-27T20:09:24.490Z,97681.55
2019-01-27T20:12:06.783Z,97685.87
2019-01-27T20:14:44.934Z,97688.75
2019-01-27T20:17:13.816Z,97688.53
2019-01-27T20:19:42.572Z,97692.53
2019-01-27T20:22:08.652Z,97697.20
2019-01-27T20:24:40.661Z,97699.07
2019-01-27T20:27:06.784Z,97698.42
2019-01-27T20:29:47.658Z,97707.70
2019-01-27T20:32:28.559Z,97701.91
2019-01-27T20:35:12.378Z,97707.83
2019-01-27T20:37:46.851Z,97709.71
2019-01-27T20:40:14.668Z,97709.15
2019-01-27T20:42:43.173Z,97716.21
2019-01-27T20:45:12.338Z,97721.02
2019-01-27T20:47:54.728Z,97721.39
2019-01-27T20:50:23.465Z,97724.58
2019-01-27T20:52:52.437Z,97723.70
2019-01-27T20:55:30.043Z,97728.42
2019-01-27T20:57:56.121Z,97732.23
2019-01-27T21:00:22.325Z,97731.63
2019-01-27T21:02:51.294Z,97725.30
2019-01-27T21:05:20.342Z,97733.56
2019-01-27T21:07:46.387Z,97732.72
2019-01-27T21:10:22.416Z,97734.33
2019-01-27T21:12:48.446Z,97746.80
2019-01-27T21:15:16.893Z,97744.91
2019-01-27T21:17:45.876Z,97749.33
2019-01-27T21:20:12.119Z,97751.52
2019-01-27T21:22:36.547Z,97760.44
2019-01-27T21:25:00.932Z,97762.41
2019-01-27T21:27:25.352Z,97768.78
2019-01-27T21:29:49.743Z,97770.34
2019-01-27T21:32:14.260Z,97774.56
2019-01-27T21:34:38.690Z,97788.19
2019-01-27T21:37:03.081Z,97779.92
2019-01-27T21:39:28.088Z,97789.65
2019-01-27T21:41:52.575Z,97796.30
2019-01-27T21:44:17.008Z,97795.89
2019-01-27T21:46:41.388Z,97803.07
2019-01-27T21:49:05.814Z,97805.81
2019-01-27T21:51:30.223Z,97813.60
2019-01-27T21:53:54.616Z,97815.67
2019-01-27T21:56:19.059Z,97817.23
2019-01-27T21:58:43.493Z,97820.63
2019-01-27T22:01:07.974Z,97826.25
2019-01-27T22:03:32.795Z,97831.09
2019-01-27T22:05:57.185Z,97828.50
2019-01-27T22:08:21.570Z,97833.59
2019-01-27T22:10:45.988Z,97834.73
2019-01-27T22:13:10.393Z,97844.05
2019-01-27T22:15:34.838Z,97843.01
2019-01-27T22:17:59.227Z,97847.88
2019-01-27T22:20:23.632Z,97848.50
2019-01-27T22:22:48.048Z,97849.09
2019-01-27T22:25:13.993Z,97855.62
2019-01-27T22:27:38.402Z,97859.92
2019-01-27T22:30:02.848Z,97865.56
2019-01-27T22:32:27.287Z,97869.13
2019-01-27T22:34:51.685Z,97875.22
2019-01-27T22:37:16.090Z,97870.95
2019-01-27T22:39:40.486Z,97872.20
2019-01-27T22:42:04.951Z,97876.46
2019-01-27T22:44:29.359Z,97874.78
2019-01-27T22:46:53.752Z,97874.19
2019-01-27T22:49:18.195Z,97883.47
2019-01-27T22:51:42.578Z,97881.34
2019-01-27T22:54:06.974Z,97885.12
2019-01-27T22:56:31.384Z,97879.08
2019-01-27T22:58:55.789Z,97890.97
2019-01-27T23:01:20.538Z,97893.08
2019-01-27T23:03:44.938Z,97887.02
2019-01-27T23:06:09.326Z,97886.25
2019-01-27T23:08:33.748Z,97894.31
2019-01-27T23:10:58.119Z,97899.97
2019-01-27T23:13:22.614Z,97899.83
2019-01-27T23:15:47.000Z,97899.37
2019-01-27T23:18:11.426Z,97904.70
2019-01-27T23:20:35.812Z,97907.74
2019-01-27T23:23:00.209Z,97909.28
2019-01-27T23:25:24.625Z,97911.41
2019-01-27T23:27:49.031Z,97922.09
2019-01-27T23:30:13.707Z,97915.52
2019-01-27T23:32:38.188Z,97922.56
2019-01-27T23:35:02.656Z,97930.17
2019-01-27T23:37:27.079Z,97927.91
2019-01-27T23:39:51.465Z,97926.23
2019-01-27T23:42:15.902Z,97926.82
2019-01-27T23:44:40.292Z,97937.64
2019-01-27T23:47:04.748Z,97941.02
2019-01-27T23:49:29.251Z,97935.06
2019-01-27T23:51:53.645Z,97940.38
2019-01-27T23:54:18.075Z,97941.73
2019-01-27T23:56:42.472Z,97940.66
2019-01-27T23:59:06.885Z,97940.50
